Agassiz, British Columbia

9:17 AM PDT on August 31, 2015 (GMT -0700)
Little Mountain/Fairfield | | Change Station
CLOSE
Current Station
Personal Weather Station
Location: Chilliwack, BRITISH COLUMBIA
Elevation: 43 ft
Nearby Weather Stations

Elev 43 ft 49.18 °N, 121.93 °W | Updated 9 seconds ago

Light Rain
Light Rain Mist
59.1 °F
Feels Like 59.1 °F
N
0.0
Wind Variable Wind from SSE
Gusts 3.2 mph

Today
High -- | Low -- °F
--% Chance of Precip.
Yesterday
High -- | Low -- °F
Precip. -- in
6:21 AM 7:52 PM
Waning Gibbous, 95% visible
Pressure 29.85 in
Visibility 6.0 miles
Clouds Scattered Clouds 1300 ft
Mostly Cloudy 2500 ft
Mostly Cloudy 4000 ft
Overcast 5500 ft
Dew Point 58 °F
Humidity 96%
Rainfall 0.27 in
Snow Depth Not available.
UV 1 out of 12
Pollen Not available.
Air Quality Not available.
Flu Activity Not available.
METAR CYHE 311605Z AUTO 30007KT 270V350 6SM -RA BR SCT013 BKN025 BKN040 OVC055 14/13 A2985 RMK SLP107
Pressure 29.85 in
Visibility 6.0 miles
Clouds Scattered Clouds 1300 ft
Mostly Cloudy 2500 ft
Mostly Cloudy 4000 ft
Overcast 5500 ft
Dew Point 58 °F
Humidity 96%
Rainfall 0.27 in
Snow Depth Not available.
UV 1 out of 12
Pollen Not available.
Air Quality Not available.
Flu Activity Not available.
METAR CYHE 311605Z AUTO 30007KT 270V350 6SM -RA BR SCT013 BKN025 BKN040 OVC055 14/13 A2985 RMK SLP107

10-Day Weather Forecast

×

Almanac

Astronomy

Aug. 31, 2015 Rise Set
Actual Time
Civil Twilight
Nautical Twilight
Astronomical Twilight
Moon
Length of Visible Light
Length of Day
Tomorrow will be .
, % of the Moon is Illuminated

Today's Extremes

Country Highs Country Lows

Community

WunderPhotos

Upload Photos

1,851,301 photos uploaded!

WunderBlogs® & News

Nearby

Air Quality

  Air Quality AQ Index Pollutant
Not available.

Snow Depth

Station Depth Elevation

Earthquake Activity

City Distance Mag. Time & Date
Minimum magnitude displayed is 2.5.

Coastal Water Temperatures

Place Temperature

Stations

Nearby Weather Stations

Station Location Temp. Windchill Dew Point Humidity Wind Precip. Elev Updated Type